Estación Meteorológica Peña el Pijo (Robertgarden) [ 12/17/17 01:26:03 CET ]

Fecha Hora Presion(HPa) Temp (°C) Humedad % Rocio (°C) Viento ( m/s) Direccion Lluvia 1Hora(mm) Lluvia 24H(mm) LLuvia Total(mm)
2017-Oct-20 01:01:59 1008.100 10.4 70 5.2       0.51 1466.45
2017-Oct-20 02:01:47 1008.700 9.9 70 4.7         1466.45
2017-Oct-20 03:02:07 1008.800 8.9 74 4.5         1466.45
2017-Oct-20 04:02:18 1008.800 9.8 73 5.2         1466.45
2017-Oct-20 05:02:27 1008.800 8.3 76 4.3         1466.45
2017-Oct-20 06:02:18 1008.900 7.3 79 3.9         1466.45
2017-Oct-20 07:01:51 1009.400 6.9 82 4.0         1466.45
2017-Oct-20 08:01:46 1009.900 9.9 82 6.9         1466.45
2017-Oct-20 09:02:01 1010.700 10.7 82 7.7         1466.45
2017-Oct-20 10:01:47 1011.800 11.9 81 8.8         1466.45
2017-Oct-20 11:01:41 1011.900 17.1 70 11.6         1466.45
2017-Oct-20 12:01:55 1011.900 19.3 58 10.8         1466.45
2017-Oct-20 13:01:38 1012.400 20.7 54 11.0         1466.45
2017-Oct-20 14:01:51 1012.300 19.3 56 10.3         1466.45
2017-Oct-20 15:01:30 1011.900 22.3 50 11.4         1466.45
2017-Oct-20 16:02:05 1012.300 22.8 49 11.5         1466.45
2017-Oct-20 17:01:38 1012.500 21.8 47 9.9         1466.45
2017-Oct-20 18:01:50 1012.500 20.3 49 9.2         1466.45
2017-Oct-20 19:01:37 1012.900 16.4 59 8.4         1466.45
2017-Oct-20 20:01:31 1013.600 13.8 65 7.3         1466.45
2017-Oct-20 21:01:34 1014.000 10.9 72 6.1         1466.45
2017-Oct-20 22:01:36 1014.600 10.0 77 6.1         1466.45
2017-Oct-20 23:01:49 1015.000 9.8 80 6.5         1466.45

Temperatura Máxima:22°    Temperatura Mínima:
Presión Máxima:1015.000 Hpa    Presión Mínima:1008.100 Hpa


Volver